sensor_id;sensor_type;location;lat;lon;timestamp;pressure;altitude;pressure_sealevel;temperature;humidity
78855;BME280;68206;59.956;30.234;2023-08-07T00:00:37;100981.31;;;24.67;72.83
78855;BME280;68206;59.956;30.234;2023-08-07T00:03:07;100984.91;;;24.67;72.42
78855;BME280;68206;59.956;30.234;2023-08-07T00:05:35;100991.31;;;24.66;72.50
78855;BME280;68206;59.956;30.234;2023-08-07T00:08:04;100983.88;;;24.68;72.47
78855;BME280;68206;59.956;30.234;2023-08-07T00:10:33;100978.59;;;24.67;72.39
78855;BME280;68206;59.956;30.234;2023-08-07T00:13:01;100981.31;;;24.67;72.13
78855;BME280;68206;59.956;30.234;2023-08-07T00:15:30;100984.03;;;24.67;72.10
78855;BME280;68206;59.956;30.234;2023-08-07T00:18:00;100982.31;;;24.66;72.17
78855;BME280;68206;59.956;30.234;2023-08-07T00:20:30;100986.00;;;24.65;72.04
78855;BME280;68206;59.956;30.234;2023-08-07T00:22:59;100980.47;;;24.66;71.87
78855;BME280;68206;59.956;30.234;2023-08-07T00:25:27;100984.91;;;24.67;71.57
78855;BME280;68206;59.956;30.234;2023-08-07T00:27:55;100981.44;;;24.65;71.48
78855;BME280;68206;59.956;30.234;2023-08-07T00:30:24;100976.13;;;24.64;71.53
78855;BME280;68206;59.956;30.234;2023-08-07T00:32:52;100972.84;;;24.60;71.88
78855;BME280;68206;59.956;30.234;2023-08-07T00:35:22;100980.69;;;24.63;71.58
78855;BME280;68206;59.956;30.234;2023-08-07T00:37:52;100986.00;;;24.65;71.50
78855;BME280;68206;59.956;30.234;2023-08-07T00:40:21;100982.56;;;24.63;71.66
78855;BME280;68206;59.956;30.234;2023-08-07T00:42:49;100989.09;;;24.60;71.28
78855;BME280;68206;59.956;30.234;2023-08-07T00:45:18;100987.09;;;24.62;71.08
78855;BME280;68206;59.956;30.234;2023-08-07T00:47:48;100983.69;;;24.60;71.29
78855;BME280;68206;59.956;30.234;2023-08-07T00:50:16;100979.13;;;24.61;70.94
78855;BME280;68206;59.956;30.234;2023-08-07T00:52:45;100972.97;;;24.59;71.03
78855;BME280;68206;59.956;30.234;2023-08-07T00:55:15;100992.81;;;24.59;71.44
78855;BME280;68206;59.956;30.234;2023-08-07T00:57:43;100983.06;;;24.57;71.16
78855;BME280;68206;59.956;30.234;2023-08-07T01:00:13;100976.78;;;24.56;71.17
78855;BME280;68206;59.956;30.234;2023-08-07T01:02:43;100974.06;;;24.56;70.70
78855;BME280;68206;59.956;30.234;2023-08-07T01:05:12;100973.06;;;24.57;71.11
78855;BME280;68206;59.956;30.234;2023-08-07T01:07:40;100974.94;;;24.57;70.98
78855;BME280;68206;59.956;30.234;2023-08-07T01:10:09;100970.63;;;24.54;71.02
78855;BME280;68206;59.956;30.234;2023-08-07T01:12:44;100966.31;;;24.51;71.13
78855;BME280;68206;59.956;30.234;2023-08-07T01:15:16;100976.31;;;24.51;70.91
78855;BME280;68206;59.956;30.234;2023-08-07T01:17:49;100971.00;;;24.49;70.97
78855;BME280;68206;59.956;30.234;2023-08-07T01:20:18;100977.44;;;24.48;70.74
78855;BME280;68206;59.956;30.234;2023-08-07T01:22:48;100971.00;;;24.49;70.66
78855;BME280;68206;59.956;30.234;2023-08-07T01:25:17;100961.19;;;24.48;70.86
78855;BME280;68206;59.956;30.234;2023-08-07T01:27:51;100962.88;;;24.49;70.46
78855;BME280;68206;59.956;30.234;2023-08-07T01:30:29;100968.44;;;24.48;70.34
78855;BME280;68206;59.956;30.234;2023-08-07T01:33:04;100969.16;;;24.50;70.37
78855;BME280;68206;59.956;30.234;2023-08-07T01:35:41;100963.72;;;24.50;70.14
78855;BME280;68206;59.956;30.234;2023-08-07T01:38:12;100959.28;;;24.49;70.08
78855;BME280;68206;59.956;30.234;2023-08-07T01:40:42;100969.44;;;24.47;70.35
78855;BME280;68206;59.956;30.234;2023-08-07T01:43:11;100968.44;;;24.48;70.15
78855;BME280;68206;59.956;30.234;2023-08-07T01:45:40;100964.13;;;24.45;70.21
78855;BME280;68206;59.956;30.234;2023-08-07T01:48:08;100965.22;;;24.43;70.53
78855;BME280;68206;59.956;30.234;2023-08-07T01:50:38;100963.38;;;24.43;70.35
78855;BME280;68206;59.956;30.234;2023-08-07T01:53:07;100969.94;;;24.41;70.22
78855;BME280;68206;59.956;30.234;2023-08-07T01:55:37;100959.22;;;24.39;70.07
78855;BME280;68206;59.956;30.234;2023-08-07T01:58:06;100955.53;;;24.40;70.32
78855;BME280;68206;59.956;30.234;2023-08-07T02:00:34;100954.66;;;24.40;70.27
78855;BME280;68206;59.956;30.234;2023-08-07T02:03:02;100956.63;;;24.38;70.44
78855;BME280;68206;59.956;30.234;2023-08-07T02:05:33;100950.34;;;24.37;70.50
78855;BME280;68206;59.956;30.234;2023-08-07T02:08:01;100950.34;;;24.37;70.27
78855;BME280;68206;59.956;30.234;2023-08-07T02:10:30;100953.06;;;24.37;69.99
78855;BME280;68206;59.956;30.234;2023-08-07T02:13:00;100951.09;;;24.39;69.84
78855;BME280;68206;59.956;30.234;2023-08-07T02:15:28;100959.34;;;24.38;70.09
78855;BME280;68206;59.956;30.234;2023-08-07T02:17:57;100948.63;;;24.36;70.20
78855;BME280;68206;59.956;30.234;2023-08-07T02:20:25;100955.25;;;24.43;70.06
78855;BME280;68206;59.956;30.234;2023-08-07T02:22:54;100959.09;;;24.41;69.91
78855;BME280;68206;59.956;30.234;2023-08-07T02:25:22;100955.13;;;24.45;69.78
78855;BME280;68206;59.956;30.234;2023-08-07T02:27:50;100956.72;;;24.47;69.67
78855;BME280;68206;59.956;30.234;2023-08-07T02:30:20;100966.09;;;24.55;69.06
78855;BME280;68206;59.956;30.234;2023-08-07T02:32:49;100956.28;;;24.63;69.30
78855;BME280;68206;59.956;30.234;2023-08-07T02:35:18;100958.59;;;24.68;68.87
78855;BME280;68206;59.956;30.234;2023-08-07T02:37:46;100954.31;;;24.65;69.12
78855;BME280;68206;59.956;30.234;2023-08-07T02:40:15;100951.94;;;24.72;68.71
78855;BME280;68206;59.956;30.234;2023-08-07T02:42:45;100953.28;;;24.77;68.42
78855;BME280;68206;59.956;30.234;2023-08-07T02:45:14;100959.41;;;24.90;67.90
78855;BME280;68206;59.956;30.234;2023-08-07T02:47:44;100960.75;;;24.96;67.68
78855;BME280;68206;59.956;30.234;2023-08-07T02:50:13;100961.06;;;25.03;67.44
78855;BME280;68206;59.956;30.234;2023-08-07T02:52:41;100954.72;;;25.13;66.90
78855;BME280;68206;59.956;30.234;2023-08-07T02:55:12;100947.50;;;25.23;66.50
78855;BME280;68206;59.956;30.234;2023-08-07T02:57:40;100949.94;;;25.26;66.45
78855;BME280;68206;59.956;30.234;2023-08-07T03:00:09;100958.00;;;25.38;65.88
78855;BME280;68206;59.956;30.234;2023-08-07T03:02:38;100956.38;;;25.56;65.45
78855;BME280;68206;59.956;30.234;2023-08-07T03:05:08;100943.22;;;25.82;64.69
78855;BME280;68206;59.956;30.234;2023-08-07T03:07:37;100946.03;;;26.10;63.56
78855;BME280;68206;59.956;30.234;2023-08-07T03:10:06;100942.66;;;26.28;62.83
78855;BME280;68206;59.956;30.234;2023-08-07T03:12:35;100946.38;;;26.36;61.99
78855;BME280;68206;59.956;30.234;2023-08-07T03:15:05;100944.25;;;26.49;61.63
78855;BME280;68206;59.956;30.234;2023-08-07T03:17:34;100952.16;;;26.53;61.74
78855;BME280;68206;59.956;30.234;2023-08-07T03:20:03;100949.41;;;26.43;61.68
78855;BME280;68206;59.956;30.234;2023-08-07T03:22:33;100946.72;;;26.53;61.62
78855;BME280;68206;59.956;30.234;2023-08-07T03:25:02;100940.41;;;26.71;61.09
78855;BME280;68206;59.956;30.234;2023-08-07T03:27:31;100952.72;;;26.75;60.41
78855;BME280;68206;59.956;30.234;2023-08-07T03:29:59;100926.69;;;26.92;60.31
78855;BME280;68206;59.956;30.234;2023-08-07T03:32:30;100935.50;;;27.23;59.18
78855;BME280;68206;59.956;30.234;2023-08-07T03:34:58;100945.75;;;27.58;58.05
78855;BME280;68206;59.956;30.234;2023-08-07T03:37:28;100937.59;;;27.85;57.04
78855;BME280;68206;59.956;30.234;2023-08-07T03:39:59;100946.84;;;28.29;55.09
78855;BME280;68206;59.956;30.234;2023-08-07T03:42:32;100943.41;;;28.63;54.43
78855;BME280;68206;59.956;30.234;2023-08-07T03:45:02;100928.66;;;29.09;53.07
78855;BME280;68206;59.956;30.234;2023-08-07T03:47:31;100937.56;;;29.37;51.47
78855;BME280;68206;59.956;30.234;2023-08-07T03:50:00;100916.91;;;30.02;50.42
78855;BME280;68206;59.956;30.234;2023-08-07T03:52:30;100926.25;;;30.41;48.54
78855;BME280;68206;59.956;30.234;2023-08-07T03:55:01;100913.81;;;30.88;47.30
78855;BME280;68206;59.956;30.234;2023-08-07T03:57:29;100927.16;;;30.91;47.16
78855;BME280;68206;59.956;30.234;2023-08-07T03:59:58;100924.13;;;31.10;46.35
78855;BME280;68206;59.956;30.234;2023-08-07T04:02:39;100920.91;;;32.09;44.27
78855;BME280;68206;59.956;30.234;2023-08-07T04:05:11;100929.94;;;32.17;43.87
78855;BME280;68206;59.956;30.234;2023-08-07T04:07:39;100912.19;;;33.04;42.05
78855;BME280;68206;59.956;30.234;2023-08-07T04:10:09;100914.28;;;33.84;39.61
78855;BME280;68206;59.956;30.234;2023-08-07T04:12:38;100919.03;;;34.26;38.79
78855;BME280;68206;59.956;30.234;2023-08-07T04:15:07;100916.63;;;34.37;38.46
78855;BME280;68206;59.956;30.234;2023-08-07T04:17:37;100918.75;;;34.35;38.13
78855;BME280;68206;59.956;30.234;2023-08-07T04:20:06;100903.84;;;34.94;36.93
78855;BME280;68206;59.956;30.234;2023-08-07T04:22:35;100920.25;;;35.02;36.77
78855;BME280;68206;59.956;30.234;2023-08-07T04:25:04;100922.75;;;34.54;37.30
78855;BME280;68206;59.956;30.234;2023-08-07T04:27:34;100906.59;;;34.94;36.62
78855;BME280;68206;59.956;30.234;2023-08-07T04:30:04;100920.72;;;35.68;35.47
78855;BME280;68206;59.956;30.234;2023-08-07T04:32:32;100903.66;;;35.85;35.22
78855;BME280;68206;59.956;30.234;2023-08-07T04:35:01;100909.22;;;35.57;35.09
78855;BME280;68206;59.956;30.234;2023-08-07T04:37:30;100909.38;;;35.49;35.17
78855;BME280;68206;59.956;30.234;2023-08-07T04:39:58;100912.78;;;35.86;35.03
78855;BME280;68206;59.956;30.234;2023-08-07T04:42:29;100905.97;;;35.82;34.59
78855;BME280;68206;59.956;30.234;2023-08-07T04:44:59;100910.22;;;35.50;35.21
78855;BME280;68206;59.956;30.234;2023-08-07T04:47:29;100905.97;;;36.36;33.40
78855;BME280;68206;59.956;30.234;2023-08-07T04:49:58;100895.88;;;36.96;32.12
78855;BME280;68206;59.956;30.234;2023-08-07T04:52:26;100887.06;;;36.26;33.09
78855;BME280;68206;59.956;30.234;2023-08-07T04:54:54;100900.34;;;37.10;32.29
78855;BME280;68206;59.956;30.234;2023-08-07T04:57:23;100890.91;;;36.38;33.31
78855;BME280;68206;59.956;30.234;2023-08-07T04:59:51;100889.28;;;36.70;32.54
78855;BME280;68206;59.956;30.234;2023-08-07T05:02:21;100901.34;;;36.63;32.81
78855;BME280;68206;59.956;30.234;2023-08-07T05:04:50;100906.72;;;36.84;31.35
78855;BME280;68206;59.956;30.234;2023-08-07T05:07:18;100906.28;;;36.94;32.22
78855;BME280;68206;59.956;30.234;2023-08-07T05:09:47;100899.88;;;37.52;31.10
78855;BME280;68206;59.956;30.234;2023-08-07T05:12:18;100893.16;;;37.86;29.83
78855;BME280;68206;59.956;30.234;2023-08-07T05:14:46;100900.13;;;36.79;31.97
78855;BME280;68206;59.956;30.234;2023-08-07T05:17:14;100891.84;;;37.95;29.95
78855;BME280;68206;59.956;30.234;2023-08-07T05:19:44;100887.84;;;38.29;29.16
78855;BME280;68206;59.956;30.234;2023-08-07T05:22:13;100889.06;;;38.09;29.63
78855;BME280;68206;59.956;30.234;2023-08-07T05:24:42;100885.03;;;38.99;28.52
78855;BME280;68206;59.956;30.234;2023-08-07T05:27:12;100889.16;;;38.65;28.98
78855;BME280;68206;59.956;30.234;2023-08-07T05:29:40;100898.34;;;38.27;29.39
78855;BME280;68206;59.956;30.234;2023-08-07T05:32:11;100892.03;;;38.77;28.44
78855;BME280;68206;59.956;30.234;2023-08-07T05:34:41;100898.66;;;39.50;27.63
78855;BME280;68206;59.956;30.234;2023-08-07T05:37:11;100895.88;;;39.07;27.74
78855;BME280;68206;59.956;30.234;2023-08-07T05:39:39;100884.69;;;38.64;28.55
78855;BME280;68206;59.956;30.234;2023-08-07T05:42:08;100887.16;;;40.01;26.54
78855;BME280;68206;59.956;30.234;2023-08-07T05:44:37;100881.22;;;40.46;25.66
78855;BME280;68206;59.956;30.234;2023-08-07T05:47:06;100892.47;;;40.62;25.61
78855;BME280;68206;59.956;30.234;2023-08-07T05:49:34;100887.16;;;41.26;25.30
78855;BME280;68206;59.956;30.234;2023-08-07T05:52:03;100884.16;;;41.27;24.03
78855;BME280;68206;59.956;30.234;2023-08-07T05:54:34;100889.22;;;40.06;26.27
78855;BME280;68206;59.956;30.234;2023-08-07T05:57:04;100880.25;;;40.52;25.68
78855;BME280;68206;59.956;30.234;2023-08-07T05:59:32;100883.44;;;38.91;27.86
78855;BME280;68206;59.956;30.234;2023-08-07T06:02:03;100890.94;;;39.09;27.57
78855;BME280;68206;59.956;30.234;2023-08-07T06:04:32;100869.31;;;39.79;26.66
78855;BME280;68206;59.956;30.234;2023-08-07T06:07:01;100872.56;;;40.06;26.36
78855;BME280;68206;59.956;30.234;2023-08-07T06:09:30;100862.91;;;40.68;25.14
78855;BME280;68206;59.956;30.234;2023-08-07T06:11:59;100863.34;;;41.81;24.50
78855;BME280;68206;59.956;30.234;2023-08-07T06:14:28;100864.75;;;41.44;24.19
78855;BME280;68206;59.956;30.234;2023-08-07T06:16:57;100878.94;;;41.07;24.63
78855;BME280;68206;59.956;30.234;2023-08-07T06:19:27;100887.13;;;40.91;24.67
78855;BME280;68206;59.956;30.234;2023-08-07T06:21:58;100862.75;;;41.16;24.74
78855;BME280;68206;59.956;30.234;2023-08-07T06:24:28;100868.97;;;40.35;25.37
78855;BME280;68206;59.956;30.234;2023-08-07T06:26:56;100855.06;;;39.32;26.83
78855;BME280;68206;59.956;30.234;2023-08-07T06:29:26;100862.09;;;40.19;25.43
78855;BME280;68206;59.956;30.234;2023-08-07T06:31:55;100850.88;;;40.56;24.97
78855;BME280;68206;59.956;30.234;2023-08-07T06:34:24;100860.25;;;39.83;26.16
78855;BME280;68206;59.956;30.234;2023-08-07T06:36:52;100859.03;;;40.27;25.57
78855;BME280;68206;59.956;30.234;2023-08-07T06:39:20;100854.69;;;40.32;25.53
78855;BME280;68206;59.956;30.234;2023-08-07T06:41:49;100844.84;;;40.59;25.19
78855;BME280;68206;59.956;30.234;2023-08-07T06:44:22;100842.75;;;40.96;24.91
78855;BME280;68206;59.956;30.234;2023-08-07T06:46:52;100844.44;;;41.20;24.46
78855;BME280;68206;59.956;30.234;2023-08-07T06:49:21;100824.25;;;40.37;25.31
78855;BME280;68206;59.956;30.234;2023-08-07T06:51:50;100820.75;;;39.63;26.77
78855;BME280;68206;59.956;30.234;2023-08-07T06:54:19;100834.03;;;40.39;25.78
78855;BME280;68206;59.956;30.234;2023-08-07T06:56:47;100820.03;;;40.34;25.70
78855;BME280;68206;59.956;30.234;2023-08-07T06:59:16;100827.59;;;39.61;26.50
78855;BME280;68206;59.956;30.234;2023-08-07T07:01:44;100829.66;;;38.86;27.38
78855;BME280;68206;59.956;30.234;2023-08-07T07:04:14;100839.09;;;38.60;28.29
78855;BME280;68206;59.956;30.234;2023-08-07T07:06:43;100852.44;;;38.69;27.74
78855;BME280;68206;59.956;30.234;2023-08-07T07:09:11;100832.28;;;38.81;27.72
78855;BME280;68206;59.956;30.234;2023-08-07T07:11:43;100822.03;;;39.24;26.88
78855;BME280;68206;59.956;30.234;2023-08-07T07:14:12;100834.84;;;39.25;27.07
78855;BME280;68206;59.956;30.234;2023-08-07T07:16:40;100829.38;;;39.73;26.48
78855;BME280;68206;59.956;30.234;2023-08-07T07:19:10;100833.81;;;39.44;26.48
78855;BME280;68206;59.956;30.234;2023-08-07T07:21:40;100826.72;;;38.81;26.95
78855;BME280;68206;59.956;30.234;2023-08-07T07:24:08;100840.16;;;38.84;27.61
78855;BME280;68206;59.956;30.234;2023-08-07T07:26:37;100823.41;;;38.47;27.69
78855;BME280;68206;59.956;30.234;2023-08-07T07:29:05;100822.34;;;38.73;27.36
78855;BME280;68206;59.956;30.234;2023-08-07T07:31:34;100815.13;;;39.33;26.64
78855;BME280;68206;59.956;30.234;2023-08-07T07:34:02;100807.44;;;40.43;25.56
78855;BME280;68206;59.956;30.234;2023-08-07T07:36:31;100823.53;;;40.11;25.73
78855;BME280;68206;59.956;30.234;2023-08-07T07:39:01;100803.53;;;40.21;25.45
78855;BME280;68206;59.956;30.234;2023-08-07T07:41:29;100812.94;;;40.73;24.62
78855;BME280;68206;59.956;30.234;2023-08-07T07:43:58;100813.38;;;40.35;25.27
78855;BME280;68206;59.956;30.234;2023-08-07T07:46:26;100826.16;;;40.36;25.48
78855;BME280;68206;59.956;30.234;2023-08-07T07:48:55;100808.19;;;39.42;26.27
78855;BME280;68206;59.956;30.234;2023-08-07T07:51:24;100811.09;;;38.86;27.14
78855;BME280;68206;59.956;30.234;2023-08-07T07:53:53;100795.75;;;38.34;28.28
78855;BME280;68206;59.956;30.234;2023-08-07T07:56:41;100796.28;;;38.99;27.04
78855;BME280;68206;59.956;30.234;2023-08-07T07:59:11;100807.66;;;39.16;26.39
78855;BME280;68206;59.956;30.234;2023-08-07T08:01:40;100807.88;;;39.32;26.15
78855;BME280;68206;59.956;30.234;2023-08-07T08:04:09;100799.91;;;39.18;26.83
78855;BME280;68206;59.956;30.234;2023-08-07T08:06:39;100794.31;;;39.42;26.25
78855;BME280;68206;59.956;30.234;2023-08-07T08:09:08;100786.88;;;39.00;26.71
78855;BME280;68206;59.956;30.234;2023-08-07T08:11:37;100781.38;;;38.44;27.76
78855;BME280;68206;59.956;30.234;2023-08-07T08:14:06;100806.47;;;37.86;28.51
78855;BME280;68206;59.956;30.234;2023-08-07T08:16:35;100802.56;;;37.49;28.66
78855;BME280;68206;59.956;30.234;2023-08-07T08:19:04;100779.22;;;37.89;28.61
78855;BME280;68206;59.956;30.234;2023-08-07T08:21:34;100772.91;;;38.39;27.72
78855;BME280;68206;59.956;30.234;2023-08-07T08:24:03;100789.47;;;38.52;28.31
78855;BME280;68206;59.956;30.234;2023-08-07T08:26:33;100768.25;;;38.08;28.75
78855;BME280;68206;59.956;30.234;2023-08-07T08:29:02;100787.19;;;37.02;30.10
78855;BME280;68206;59.956;30.234;2023-08-07T08:31:33;100790.03;;;37.46;29.61
78855;BME280;68206;59.956;30.234;2023-08-07T08:34:01;100772.06;;;37.69;28.44
78855;BME280;68206;59.956;30.234;2023-08-07T08:36:30;100770.00;;;37.51;28.87
78855;BME280;68206;59.956;30.234;2023-08-07T08:38:59;100772.28;;;37.16;29.29
78855;BME280;68206;59.956;30.234;2023-08-07T08:41:30;100745.84;;;35.69;31.57
78855;BME280;68206;59.956;30.234;2023-08-07T08:43:59;100764.44;;;35.47;32.26
78855;BME280;68206;59.956;30.234;2023-08-07T08:46:30;100767.28;;;35.26;32.69
78855;BME280;68206;59.956;30.234;2023-08-07T08:49:01;100781.78;;;35.06;33.41
78855;BME280;68206;59.956;30.234;2023-08-07T08:51:32;100772.31;;;34.81;33.21
78855;BME280;68206;59.956;30.234;2023-08-07T08:54:01;100766.63;;;34.33;34.26
78855;BME280;68206;59.956;30.234;2023-08-07T08:56:31;100759.84;;;34.36;34.07
78855;BME280;68206;59.956;30.234;2023-08-07T08:58:59;100774.47;;;34.15;34.51
78855;BME280;68206;59.956;30.234;2023-08-07T09:01:29;100762.47;;;34.01;34.94
78855;BME280;68206;59.956;30.234;2023-08-07T09:04:01;100768.88;;;33.37;36.80
78855;BME280;68206;59.956;30.234;2023-08-07T09:06:32;100785.28;;;33.01;37.05
78855;BME280;68206;59.956;30.234;2023-08-07T09:09:01;100757.22;;;32.91;37.43
78855;BME280;68206;59.956;30.234;2023-08-07T09:11:31;100765.75;;;33.25;36.40
78855;BME280;68206;59.956;30.234;2023-08-07T09:14:02;100761.19;;;33.17;37.09
78855;BME280;68206;59.956;30.234;2023-08-07T09:16:30;100762.63;;;32.99;36.66
78855;BME280;68206;59.956;30.234;2023-08-07T09:19:01;100762.81;;;32.97;36.20
78855;BME280;68206;59.956;30.234;2023-08-07T09:21:32;100764.56;;;32.61;36.91
78855;BME280;68206;59.956;30.234;2023-08-07T09:24:00;100757.16;;;32.47;36.73
78855;BME280;68206;59.956;30.234;2023-08-07T09:26:28;100743.78;;;32.43;37.44
78855;BME280;68206;59.956;30.234;2023-08-07T09:29:01;100739.72;;;32.39;36.71
78855;BME280;68206;59.956;30.234;2023-08-07T09:31:30;100740.44;;;32.33;37.67
78855;BME280;68206;59.956;30.234;2023-08-07T09:34:03;100750.94;;;32.30;37.56
78855;BME280;68206;59.956;30.234;2023-08-07T09:36:33;100753.31;;;32.33;37.47
78855;BME280;68206;59.956;30.234;2023-08-07T09:39:02;100766.84;;;32.12;38.47
78855;BME280;68206;59.956;30.234;2023-08-07T09:41:31;100743.72;;;32.14;37.49
78855;BME280;68206;59.956;30.234;2023-08-07T09:44:06;100765.78;;;31.98;38.22
78855;BME280;68206;59.956;30.234;2023-08-07T09:46:41;100744.28;;;32.01;37.25
78855;BME280;68206;59.956;30.234;2023-08-07T09:49:11;100738.22;;;31.91;36.71
78855;BME280;68206;59.956;30.234;2023-08-07T09:51:42;100776.97;;;31.88;36.64
78855;BME280;68206;59.956;30.234;2023-08-07T09:54:12;100742.84;;;31.91;36.93
78855;BME280;68206;59.956;30.234;2023-08-07T09:56:40;100725.34;;;31.92;36.69
78855;BME280;68206;59.956;30.234;2023-08-07T09:59:09;100735.13;;;31.86;36.71
78855;BME280;68206;59.956;30.234;2023-08-07T10:01:38;100722.88;;;31.74;37.82
78855;BME280;68206;59.956;30.234;2023-08-07T10:04:07;100737.84;;;31.72;37.90
78855;BME280;68206;59.956;30.234;2023-08-07T10:06:39;100719.19;;;31.67;37.54
78855;BME280;68206;59.956;30.234;2023-08-07T10:09:08;100719.50;;;31.72;37.79
78855;BME280;68206;59.956;30.234;2023-08-07T10:11:38;100696.00;;;31.70;37.21
78855;BME280;68206;59.956;30.234;2023-08-07T10:14:08;100690.91;;;31.67;37.47
78855;BME280;68206;59.956;30.234;2023-08-07T10:16:37;100738.91;;;31.62;36.84
78855;BME280;68206;59.956;30.234;2023-08-07T10:19:09;100692.41;;;31.69;36.30
78855;BME280;68206;59.956;30.234;2023-08-07T10:21:40;100705.22;;;31.77;36.86
78855;BME280;68206;59.956;30.234;2023-08-07T10:24:12;100699.16;;;31.58;36.79
78855;BME280;68206;59.956;30.234;2023-08-07T10:26:44;100687.09;;;31.68;36.39
78855;BME280;68206;59.956;30.234;2023-08-07T10:29:17;100693.22;;;31.78;36.48
78855;BME280;68206;59.956;30.234;2023-08-07T10:31:48;100697.59;;;31.64;35.82
78855;BME280;68206;59.956;30.234;2023-08-07T10:34:17;100703.94;;;31.64;35.75
78855;BME280;68206;59.956;30.234;2023-08-07T10:36:47;100687.47;;;31.64;36.13
78855;BME280;68206;59.956;30.234;2023-08-07T10:39:16;100689.19;;;31.66;35.69
78855;BME280;68206;59.956;30.234;2023-08-07T10:41:46;100721.41;;;31.63;35.62
78855;BME280;68206;59.956;30.234;2023-08-07T10:44:18;100695.41;;;31.59;35.45
78855;BME280;68206;59.956;30.234;2023-08-07T10:46:48;100680.69;;;31.52;35.60
78855;BME280;68206;59.956;30.234;2023-08-07T10:49:30;100707.94;;;31.54;35.22
78855;BME280;68206;59.956;30.234;2023-08-07T10:52:04;100664.78;;;31.48;35.27
78855;BME280;68206;59.956;30.234;2023-08-07T10:54:37;100648.81;;;31.51;35.52
78855;BME280;68206;59.956;30.234;2023-08-07T10:57:10;100682.56;;;31.52;35.69
78855;BME280;68206;59.956;30.234;2023-08-07T10:59:44;100672.16;;;31.47;35.45
78855;BME280;68206;59.956;30.234;2023-08-07T11:02:22;100657.16;;;31.58;35.62
78855;BME280;68206;59.956;30.234;2023-08-07T11:04:51;100672.06;;;31.63;35.05
78855;BME280;68206;59.956;30.234;2023-08-07T11:07:25;100664.88;;;31.62;34.43
78855;BME280;68206;59.956;30.234;2023-08-07T11:09:54;100661.50;;;31.52;34.40
78855;BME280;68206;59.956;30.234;2023-08-07T11:12:25;100656.31;;;31.57;34.71
78855;BME280;68206;59.956;30.234;2023-08-07T11:14:54;100641.72;;;31.65;34.96
78855;BME280;68206;59.956;30.234;2023-08-07T11:17:24;100640.13;;;31.71;35.08
78855;BME280;68206;59.956;30.234;2023-08-07T11:19:53;100635.34;;;31.73;34.32
78855;BME280;68206;59.956;30.234;2023-08-07T11:22:22;100661.50;;;31.75;34.11
78855;BME280;68206;59.956;30.234;2023-08-07T11:24:52;100632.38;;;31.74;34.07
78855;BME280;68206;59.956;30.234;2023-08-07T11:27:21;100640.06;;;31.79;33.84
78855;BME280;68206;59.956;30.234;2023-08-07T11:29:50;100636.66;;;31.77;34.01
78855;BME280;68206;59.956;30.234;2023-08-07T11:32:21;100657.06;;;31.74;33.95
78855;BME280;68206;59.956;30.234;2023-08-07T11:34:50;100629.34;;;31.69;34.29
78855;BME280;68206;59.956;30.234;2023-08-07T11:37:18;100655.06;;;31.68;34.75
78855;BME280;68206;59.956;30.234;2023-08-07T11:39:48;100628.88;;;31.66;34.02
78855;BME280;68206;59.956;30.234;2023-08-07T11:42:18;100660.25;;;31.63;34.09
78855;BME280;68206;59.956;30.234;2023-08-07T11:44:49;100609.38;;;31.60;34.97
78855;BME280;68206;59.956;30.234;2023-08-07T11:47:18;100608.31;;;31.61;34.74
78855;BME280;68206;59.956;30.234;2023-08-07T11:49:47;100602.84;;;31.61;34.59
78855;BME280;68206;59.956;30.234;2023-08-07T11:52:16;100589.25;;;31.68;35.02
78855;BME280;68206;59.956;30.234;2023-08-07T11:54:46;100606.53;;;31.69;34.64
78855;BME280;68206;59.956;30.234;2023-08-07T11:57:18;100603.28;;;31.73;34.88
78855;BME280;68206;59.956;30.234;2023-08-07T11:59:50;100631.91;;;31.71;34.72
78855;BME280;68206;59.956;30.234;2023-08-07T12:02:23;100606.25;;;31.63;34.55
78855;BME280;68206;59.956;30.234;2023-08-07T12:04:57;100583.63;;;31.61;34.49
78855;BME280;68206;59.956;30.234;2023-08-07T12:07:27;100576.38;;;31.69;34.45
78855;BME280;68206;59.956;30.234;2023-08-07T12:10:02;100588.72;;;31.73;35.05
78855;BME280;68206;59.956;30.234;2023-08-07T12:12:34;100589.44;;;31.67;35.14
78855;BME280;68206;59.956;30.234;2023-08-07T12:15:06;100581.97;;;31.60;35.03
78855;BME280;68206;59.956;30.234;2023-08-07T12:17:35;100578.00;;;31.55;34.71
78855;BME280;68206;59.956;30.234;2023-08-07T12:20:05;100570.28;;;31.58;34.96
78855;BME280;68206;59.956;30.234;2023-08-07T12:22:37;100561.94;;;31.52;35.09
78855;BME280;68206;59.956;30.234;2023-08-07T12:25:06;100578.84;;;31.55;34.93
78855;BME280;68206;59.956;30.234;2023-08-07T12:27:36;100549.94;;;31.53;34.91
78855;BME280;68206;59.956;30.234;2023-08-07T12:30:06;100553.34;;;31.55;35.01
78855;BME280;68206;59.956;30.234;2023-08-07T12:32:35;100530.19;;;31.57;34.80
78855;BME280;68206;59.956;30.234;2023-08-07T12:35:04;100547.34;;;31.59;34.73
78855;BME280;68206;59.956;30.234;2023-08-07T12:37:38;100520.56;;;31.61;34.84
78855;BME280;68206;59.956;30.234;2023-08-07T12:40:07;100537.34;;;31.67;34.68
78855;BME280;68206;59.956;30.234;2023-08-07T12:42:40;100553.47;;;31.61;34.69
78855;BME280;68206;59.956;30.234;2023-08-07T12:45:09;100523.25;;;31.70;34.62
78855;BME280;68206;59.956;30.234;2023-08-07T12:47:39;100547.19;;;31.76;34.68
78855;BME280;68206;59.956;30.234;2023-08-07T12:50:09;100526.50;;;31.73;34.77
78855;BME280;68206;59.956;30.234;2023-08-07T12:52:38;100522.88;;;31.73;35.09